Decoded Metar for BKPR (PRISHTINA in SERBIA) (IATA:N/A) | Meteo·Mobile Aviation Weather
aviador You're here:

BKPR Decoded Metar

PRISHTINA in SERBIA
Report Time2018-09-25 18:30:00
UTC Time2018-09-25 18:37:15
Flight Rules vfr VFR
Wind330° at 04 kt
W.Decomp.*RWY 35: 3.7 kt HW 1.5 kt LCW
W.Rank330° ranks 6
Current wind is below 330° avg. (6.9)
Visibility9999 m
Phenomena:N/A
Clouds:N/A
Expected CloudBase > 3,600 ft AGL from Temp-Dew spread
CeilingNone
Temp07°C (ISA -4)
Dew Point-2°C (53% RH)
AAT3.3°C
QNH1032 hPa
Density Alt820 ft
Elevation1,890 ft
Report Wrong Elevation
Raw Report
BKPR 251830Z 33004KT CAVOK 07/M02 Q1032 NOSIG=

Extra information for BKPR:More info

Metar Taf Metar & Taf Last 4 Metars F.Rules Stats Wind Profile Meteogram Temp Stats Airport Information Weather charts Add Link Nearby VenuesMetar ALERT Operation Metar Decoded Social comments